sensor_id;sensor_type;location;lat;lon;timestamp;temperature;humidity
4687;DHT22;2357;47.316;-1.348;2024-03-07T00:01:32;7.80;99.90
4687;DHT22;2357;47.316;-1.348;2024-03-07T00:03:58;7.70;99.90
4687;DHT22;2357;47.316;-1.348;2024-03-07T00:06:23;7.70;99.90
4687;DHT22;2357;47.316;-1.348;2024-03-07T00:08:49;7.70;99.90
4687;DHT22;2357;47.316;-1.348;2024-03-07T00:11:15;7.70;99.90
4687;DHT22;2357;47.316;-1.348;2024-03-07T00:13:40;7.70;99.90
4687;DHT22;2357;47.316;-1.348;2024-03-07T00:16:06;7.60;99.90
4687;DHT22;2357;47.316;-1.348;2024-03-07T00:18:31;7.70;99.90
4687;DHT22;2357;47.316;-1.348;2024-03-07T00:20:57;7.60;99.90
4687;DHT22;2357;47.316;-1.348;2024-03-07T00:23:23;7.50;99.90
4687;DHT22;2357;47.316;-1.348;2024-03-07T00:25:48;7.50;99.90
4687;DHT22;2357;47.316;-1.348;2024-03-07T00:28:15;7.60;99.90
4687;DHT22;2357;47.316;-1.348;2024-03-07T00:30:42;7.50;99.90
4687;DHT22;2357;47.316;-1.348;2024-03-07T00:33:10;7.50;99.90
4687;DHT22;2357;47.316;-1.348;2024-03-07T00:45:20;7.40;99.90
4687;DHT22;2357;47.316;-1.348;2024-03-07T00:47:45;7.40;99.90
4687;DHT22;2357;47.316;-1.348;2024-03-07T00:50:11;7.40;99.90
4687;DHT22;2357;47.316;-1.348;2024-03-07T00:55:03;7.40;99.90
4687;DHT22;2357;47.316;-1.348;2024-03-07T00:57:29;7.30;99.90
4687;DHT22;2357;47.316;-1.348;2024-03-07T00:59:54;7.30;99.90
4687;DHT22;2357;47.316;-1.348;2024-03-07T03:45:57;6.20;99.90
4687;DHT22;2357;47.316;-1.348;2024-03-07T03:48:22;6.10;99.90
4687;DHT22;2357;47.316;-1.348;2024-03-07T03:50:48;6.10;99.90
4687;DHT22;2357;47.316;-1.348;2024-03-07T03:53:14;6.10;99.90
4687;DHT22;2357;47.316;-1.348;2024-03-07T03:55:39;6.10;99.90
4687;DHT22;2357;47.316;-1.348;2024-03-07T03:58:05;6.10;99.90
4687;DHT22;2357;47.316;-1.348;2024-03-07T04:00:31;6.10;99.90
4687;DHT22;2357;47.316;-1.348;2024-03-07T04:02:56;6.00;99.90
4687;DHT22;2357;47.316;-1.348;2024-03-07T04:05:22;6.10;99.90
4687;DHT22;2357;47.316;-1.348;2024-03-07T04:07:48;6.00;99.90
4687;DHT22;2357;47.316;-1.348;2024-03-07T04:10:15;5.90;99.90
4687;DHT22;2357;47.316;-1.348;2024-03-07T04:12:41;5.90;99.90
4687;DHT22;2357;47.316;-1.348;2024-03-07T04:17:35;5.80;99.90
4687;DHT22;2357;47.316;-1.348;2024-03-07T04:20:01;5.90;99.90
4687;DHT22;2357;47.316;-1.348;2024-03-07T04:22:31;5.80;99.90
4687;DHT22;2357;47.316;-1.348;2024-03-07T04:24:56;5.90;99.90
4687;DHT22;2357;47.316;-1.348;2024-03-07T04:27:22;5.90;99.90
4687;DHT22;2357;47.316;-1.348;2024-03-07T04:29:48;5.90;99.90
4687;DHT22;2357;47.316;-1.348;2024-03-07T04:32:15;5.90;99.90
4687;DHT22;2357;47.316;-1.348;2024-03-07T04:34:40;5.90;99.90
4687;DHT22;2357;47.316;-1.348;2024-03-07T04:37:06;5.70;99.90
4687;DHT22;2357;47.316;-1.348;2024-03-07T04:39:32;5.70;99.90
4687;DHT22;2357;47.316;-1.348;2024-03-07T04:42:01;5.80;99.90
4687;DHT22;2357;47.316;-1.348;2024-03-07T04:44:28;5.70;99.90
4687;DHT22;2357;47.316;-1.348;2024-03-07T04:46:54;5.70;99.90
4687;DHT22;2357;47.316;-1.348;2024-03-07T04:49:27;5.80;99.90
4687;DHT22;2357;47.316;-1.348;2024-03-07T04:51:54;5.70;99.90
4687;DHT22;2357;47.316;-1.348;2024-03-07T04:54:21;5.70;99.90
4687;DHT22;2357;47.316;-1.348;2024-03-07T04:56:48;5.70;99.90
4687;DHT22;2357;47.316;-1.348;2024-03-07T04:59:15;5.70;99.90
4687;DHT22;2357;47.316;-1.348;2024-03-07T05:01:41;5.70;99.90
4687;DHT22;2357;47.316;-1.348;2024-03-07T05:04:07;5.60;99.90
4687;DHT22;2357;47.316;-1.348;2024-03-07T05:06:33;5.60;99.90
4687;DHT22;2357;47.316;-1.348;2024-03-07T05:09:02;5.60;99.90
4687;DHT22;2357;47.316;-1.348;2024-03-07T05:11:32;5.60;99.90
4687;DHT22;2357;47.316;-1.348;2024-03-07T05:13:58;5.60;99.90
4687;DHT22;2357;47.316;-1.348;2024-03-07T05:16:24;5.60;99.90
4687;DHT22;2357;47.316;-1.348;2024-03-07T05:18:50;5.50;99.90
4687;DHT22;2357;47.316;-1.348;2024-03-07T05:21:17;5.60;99.90
4687;DHT22;2357;47.316;-1.348;2024-03-07T05:24:02;5.60;99.90
4687;DHT22;2357;47.316;-1.348;2024-03-07T05:26:31;5.50;99.90
4687;DHT22;2357;47.316;-1.348;2024-03-07T05:29:03;5.50;99.90
4687;DHT22;2357;47.316;-1.348;2024-03-07T05:31:37;5.40;99.90
4687;DHT22;2357;47.316;-1.348;2024-03-07T05:34:06;5.40;99.90
4687;DHT22;2357;47.316;-1.348;2024-03-07T05:36:35;5.30;99.90
4687;DHT22;2357;47.316;-1.348;2024-03-07T05:39:01;5.50;99.90
4687;DHT22;2357;47.316;-1.348;2024-03-07T05:41:35;5.50;99.90
4687;DHT22;2357;47.316;-1.348;2024-03-07T05:44:00;5.30;99.90
4687;DHT22;2357;47.316;-1.348;2024-03-07T05:46:26;5.40;99.90
4687;DHT22;2357;47.316;-1.348;2024-03-07T05:48:52;5.40;99.90
4687;DHT22;2357;47.316;-1.348;2024-03-07T05:51:22;5.30;99.90
4687;DHT22;2357;47.316;-1.348;2024-03-07T05:53:49;5.40;99.90
4687;DHT22;2357;47.316;-1.348;2024-03-07T05:56:14;5.40;99.90
4687;DHT22;2357;47.316;-1.348;2024-03-07T05:58:40;5.30;99.90
4687;DHT22;2357;47.316;-1.348;2024-03-07T06:01:05;5.40;99.90
4687;DHT22;2357;47.316;-1.348;2024-03-07T06:03:34;5.30;99.90
4687;DHT22;2357;47.316;-1.348;2024-03-07T06:05:59;5.30;99.90
4687;DHT22;2357;47.316;-1.348;2024-03-07T06:08:25;5.30;99.90
4687;DHT22;2357;47.316;-1.348;2024-03-07T06:13:18;5.30;99.90
4687;DHT22;2357;47.316;-1.348;2024-03-07T06:15:45;5.30;99.90
4687;DHT22;2357;47.316;-1.348;2024-03-07T06:18:11;5.30;99.90
4687;DHT22;2357;47.316;-1.348;2024-03-07T06:20:39;5.20;99.90
4687;DHT22;2357;47.316;-1.348;2024-03-07T06:25:33;5.20;99.90
4687;DHT22;2357;47.316;-1.348;2024-03-07T06:28:17;5.20;99.90
4687;DHT22;2357;47.316;-1.348;2024-03-07T06:30:44;5.20;99.90
4687;DHT22;2357;47.316;-1.348;2024-03-07T06:33:13;5.20;99.90
4687;DHT22;2357;47.316;-1.348;2024-03-07T06:47:52;5.10;99.90
4687;DHT22;2357;47.316;-1.348;2024-03-07T09:00:15;7.20;99.90
4687;DHT22;2357;47.316;-1.348;2024-03-07T09:12:37;7.40;99.90
4687;DHT22;2357;47.316;-1.348;2024-03-07T09:15:04;7.70;99.90
4687;DHT22;2357;47.316;-1.348;2024-03-07T09:17:30;7.70;99.90
4687;DHT22;2357;47.316;-1.348;2024-03-07T09:19:55;7.80;99.90
4687;DHT22;2357;47.316;-1.348;2024-03-07T09:24:47;8.00;99.90
4687;DHT22;2357;47.316;-1.348;2024-03-07T09:29:42;8.10;99.90
4687;DHT22;2357;47.316;-1.348;2024-03-07T09:32:09;8.30;99.90
4687;DHT22;2357;47.316;-1.348;2024-03-07T09:34:36;8.40;99.90
4687;DHT22;2357;47.316;-1.348;2024-03-07T09:37:02;8.40;99.90
4687;DHT22;2357;47.316;-1.348;2024-03-07T09:39:28;8.60;99.90
4687;DHT22;2357;47.316;-1.348;2024-03-07T09:41:57;8.70;99.90
4687;DHT22;2357;47.316;-1.348;2024-03-07T09:44:24;8.70;99.90
4687;DHT22;2357;47.316;-1.348;2024-03-07T09:46:56;8.80;99.90
4687;DHT22;2357;47.316;-1.348;2024-03-07T09:49:28;8.90;99.90
4687;DHT22;2357;47.316;-1.348;2024-03-07T09:51:55;8.90;99.90
4687;DHT22;2357;47.316;-1.348;2024-03-07T09:54:22;9.00;99.90
